Hibbing, MN

8:44 AM CST on February 14, 2016 (GMT -0600)
Chisholm-hibbing | | Change Station
CLOSE
Current Station
Airport
Location: Hibbing,
Elevation: 1352 ft
Nearby Weather Stations

Elev 1352 ft 47.39 °N, 92.84 °W | Updated 51 minutes ago

Overcast
Overcast
0 °F
Feels Like -14 °F
N
8
Wind Variable Wind from SE

Today
High -- | Low -- °F
--% Chance of Precip.
Yesterday
High -- | Low -- °F
Precip. -- in
Pressure 30.15 in
Visibility 10.0 miles
Clouds Mostly Cloudy 5500 ft
Overcast 7000 ft
Windchill -14 °F
Dew Point -10 °F
Humidity 63%
Rainfall 0.00 in
Snow Depth Not available.
7:18 AM 5:32 PM
Waxing Crescent, 42% visible
METAR KHIB 141353Z AUTO 13007KT 10SM BKN055 OVC070 M18/M23 A3002 RMK AO2 SLP208 T11781233
Pressure 30.15 in
Visibility 10.0 miles
Clouds Mostly Cloudy 5500 ft
Overcast 7000 ft
Windchill -14 °F
Dew Point -10 °F
Humidity 63%
Rainfall 0.00 in
Snow Depth Not available.
7:18 AM 5:32 PM
Waxing Crescent, 42% visible
METAR KHIB 141353Z AUTO 13007KT 10SM BKN055 OVC070 M18/M23 A3002 RMK AO2 SLP208 T11781233

10-Day Weather Forecast

Almanac

Astronomy

Feb. 14, 2016 Rise Set
Actual Time
Civil Twilight
Nautical Twilight
Astronomical Twilight
Moon
Length of Visible Light
Length of Day
Tomorrow will be .
, % of the Moon is Illuminated

Today's Extremes

State Highs State Lows

Community

WunderPhotos

Upload Photos

1,892,781 photos uploaded!

WunderBlog® & News

Nearby

Air Quality

  Air Quality AQ Index Pollutant
Not available.

Snow Depth

Station Depth Elevation

Earthquake Activity

City Distance Mag. Time & Date
Minimum magnitude displayed is 2.5.

Coastal Water Temperatures

Place Temperature

Stations

Nearby Weather Stations

Station Location Temp. Windchill Dew Point Humidity Wind Precip. Elev Updated Type
                   

Watches & Warnings

There are currently no watches in effect.